createdAt,value
2023-01-31T00:01:38.688Z,2.60
2023-01-31T00:04:11.394Z,2.33
2023-01-31T00:06:40.986Z,3.63
2023-01-31T00:09:10.697Z,3.53
2023-01-31T00:11:39.352Z,3.53
2023-01-31T00:14:10.690Z,3.87
2023-01-31T00:16:39.238Z,3.60
2023-01-31T00:19:08.530Z,3.23
2023-01-31T00:21:36.400Z,3.80
2023-01-31T00:24:05.641Z,3.90
2023-01-31T00:26:35.266Z,3.43
2023-01-31T00:29:05.527Z,3.20
2023-01-31T00:31:35.352Z,3.13
2023-01-31T00:34:03.865Z,2.87
2023-01-31T00:36:35.886Z,3.43
2023-01-31T00:39:05.928Z,2.93
2023-01-31T00:41:34.604Z,2.90
2023-01-31T00:44:02.562Z,2.87
2023-01-31T00:46:30.357Z,3.77
2023-01-31T00:48:58.662Z,3.17
2023-01-31T00:51:27.644Z,3.03
2023-01-31T00:53:56.837Z,3.03
2023-01-31T00:56:25.818Z,2.60
2023-01-31T00:58:53.912Z,2.60
2023-01-31T01:01:23.693Z,2.17
2023-01-31T01:03:51.740Z,2.90
2023-01-31T01:06:20.061Z,2.20
2023-01-31T01:08:48.061Z,2.70
2023-01-31T01:11:20.207Z,2.33
2023-01-31T01:13:48.449Z,2.50
2023-01-31T01:16:18.246Z,2.50
2023-01-31T01:18:48.133Z,2.50
2023-01-31T01:21:18.807Z,2.00
2023-01-31T01:23:47.497Z,2.53
2023-01-31T01:26:17.559Z,2.67
2023-01-31T01:28:45.380Z,3.03
2023-01-31T01:31:16.309Z,2.93
2023-01-31T01:33:44.989Z,3.17
2023-01-31T01:36:16.119Z,2.70
2023-01-31T01:38:45.320Z,3.20
2023-01-31T01:41:14.050Z,2.87
2023-01-31T01:43:45.221Z,2.50
2023-01-31T01:46:16.183Z,2.20
2023-01-31T01:48:48.103Z,2.43
2023-01-31T01:51:19.360Z,2.50
2023-01-31T01:53:51.600Z,2.63
2023-01-31T01:56:23.414Z,2.97
2023-01-31T01:59:00.618Z,3.67
2023-01-31T02:01:33.408Z,3.40
2023-01-31T02:04:01.314Z,3.47
2023-01-31T02:06:29.467Z,2.97
2023-01-31T02:08:57.288Z,3.10
2023-01-31T02:11:27.451Z,3.60
2023-01-31T02:14:00.970Z,3.03
2023-01-31T02:16:29.211Z,4.03
2023-01-31T02:18:58.054Z,3.10
2023-01-31T02:22:02.798Z,3.00
2023-01-31T02:25:08.613Z,3.30
2023-01-31T02:28:01.233Z,3.47
2023-01-31T02:30:55.219Z,3.40
2023-01-31T02:33:31.721Z,2.37
2023-01-31T02:36:08.874Z,2.70
2023-01-31T02:38:49.634Z,2.63
2023-01-31T02:41:23.887Z,3.40
2023-01-31T02:44:12.945Z,2.67
2023-01-31T02:47:00.828Z,2.53
2023-01-31T02:49:52.370Z,2.90
2023-01-31T02:52:42.744Z,3.07
2023-01-31T02:55:38.923Z,3.17
2023-01-31T02:58:14.340Z,2.97
2023-01-31T03:00:56.923Z,2.30
2023-01-31T03:03:40.728Z,2.77
2023-01-31T03:07:05.026Z,2.93
2023-01-31T03:09:59.956Z,3.13
2023-01-31T03:17:06.207Z,3.33
2023-01-31T03:20:31.268Z,2.60
2023-01-31T03:26:20.242Z,3.73
2023-01-31T03:29:44.969Z,3.23
2023-01-31T03:36:19.026Z,3.33
2023-01-31T03:39:28.955Z,2.93
2023-01-31T03:42:40.383Z,2.73
2023-01-31T03:45:35.089Z,3.57
2023-01-31T03:48:24.367Z,3.33
2023-01-31T03:51:44.541Z,2.93
2023-01-31T03:55:09.272Z,3.13
2023-01-31T03:58:06.233Z,2.63
2023-01-31T04:01:03.056Z,2.47
2023-01-31T04:04:06.869Z,2.90
2023-01-31T04:10:06.194Z,2.67
2023-01-31T04:12:47.106Z,3.07
2023-01-31T04:15:43.756Z,2.20
2023-01-31T04:21:45.549Z,2.53
2023-01-31T04:24:44.604Z,2.87
2023-01-31T04:31:13.327Z,2.33
2023-01-31T04:34:39.462Z,2.57
2023-01-31T04:38:12.479Z,2.53
2023-01-31T04:41:20.677Z,3.20
2023-01-31T04:44:20.907Z,2.23
2023-01-31T04:47:06.132Z,3.20
2023-01-31T04:49:46.082Z,3.17
2023-01-31T04:52:28.622Z,2.47
2023-01-31T04:55:21.025Z,2.73
2023-01-31T05:00:55.749Z,3.63
2023-01-31T05:03:47.876Z,3.23
2023-01-31T05:06:43.045Z,3.03
2023-01-31T05:09:24.860Z,2.17
2023-01-31T05:12:13.227Z,2.87
2023-01-31T05:14:55.186Z,2.43
2023-01-31T05:17:30.089Z,2.53
2023-01-31T05:20:02.115Z,2.80
2023-01-31T05:22:35.217Z,2.30
2023-01-31T05:25:09.627Z,2.87
2023-01-31T05:27:44.999Z,3.03
2023-01-31T05:30:27.324Z,2.73
2023-01-31T05:33:12.575Z,2.20
2023-01-31T05:39:20.446Z,2.80
2023-01-31T05:41:55.247Z,2.33
2023-01-31T05:44:27.421Z,2.57
2023-01-31T05:47:00.475Z,2.37
2023-01-31T05:49:37.391Z,2.20
2023-01-31T05:52:15.590Z,2.83
2023-01-31T05:54:45.206Z,2.63
2023-01-31T05:57:14.696Z,2.90
2023-01-31T05:59:42.838Z,2.87
2023-01-31T06:02:14.537Z,2.87
2023-01-31T06:07:48.517Z,2.60
2023-01-31T06:10:28.329Z,2.77
2023-01-31T06:12:56.507Z,2.93
2023-01-31T06:15:27.410Z,3.23
2023-01-31T06:18:02.619Z,3.17
2023-01-31T06:20:38.942Z,2.97
2023-01-31T06:23:09.988Z,3.17
2023-01-31T06:25:40.063Z,3.60
2023-01-31T06:28:20.127Z,3.63
2023-01-31T06:30:48.018Z,2.93
2023-01-31T06:33:16.030Z,3.53
2023-01-31T06:35:43.907Z,3.17
2023-01-31T06:38:13.188Z,2.63
2023-01-31T06:40:42.207Z,3.80
2023-01-31T06:43:12.578Z,2.33
2023-01-31T06:45:40.553Z,2.20
2023-01-31T06:48:12.960Z,3.23
2023-01-31T06:50:43.354Z,2.43
2023-01-31T06:53:12.024Z,2.73
2023-01-31T06:55:40.604Z,3.33
2023-01-31T06:58:20.744Z,2.83
2023-01-31T07:00:59.940Z,2.73
2023-01-31T07:07:13.449Z,3.03
2023-01-31T07:09:54.114Z,2.80
2023-01-31T07:12:32.434Z,3.70
2023-01-31T07:18:27.992Z,3.83
2023-01-31T07:24:12.942Z,3.57
2023-01-31T07:26:58.861Z,3.87
2023-01-31T07:38:01.724Z,3.90
2023-01-31T07:40:32.416Z,4.53
2023-01-31T07:43:05.408Z,4.67
2023-01-31T07:45:37.826Z,4.70
2023-01-31T07:48:09.851Z,5.10
2023-01-31T07:50:44.411Z,4.77
2023-01-31T07:53:16.203Z,5.50
2023-01-31T07:55:47.904Z,4.93
2023-01-31T07:58:20.544Z,5.73
2023-01-31T08:01:06.687Z,5.67
2023-01-31T08:03:46.654Z,5.50
2023-01-31T08:06:30.555Z,5.83
2023-01-31T08:09:07.555Z,5.87
2023-01-31T08:11:43.214Z,5.67
2023-01-31T08:14:14.740Z,5.83
2023-01-31T08:16:50.393Z,5.10
2023-01-31T08:19:32.925Z,4.67
2023-01-31T08:22:04.748Z,5.60
2023-01-31T08:25:13.227Z,4.70
2023-01-31T08:27:52.692Z,5.40
2023-01-31T08:30:38.761Z,5.03
2023-01-31T08:33:24.924Z,5.57
2023-01-31T08:36:21.867Z,5.67
2023-01-31T08:39:14.219Z,5.50
2023-01-31T08:41:48.128Z,4.33
2023-01-31T08:44:39.533Z,5.03
2023-01-31T08:47:15.833Z,4.27
2023-01-31T08:50:25.735Z,5.70
2023-01-31T08:53:17.866Z,5.77
2023-01-31T08:55:48.498Z,5.30
2023-01-31T08:58:25.778Z,6.53
2023-01-31T09:00:54.398Z,6.73
2023-01-31T09:03:36.061Z,6.80
2023-01-31T09:06:17.467Z,8.00
2023-01-31T09:08:57.129Z,6.67
2023-01-31T09:11:36.050Z,6.47
2023-01-31T09:14:26.057Z,6.50
2023-01-31T09:17:01.489Z,6.63
2023-01-31T09:19:32.423Z,6.63
2023-01-31T09:22:00.356Z,7.73
2023-01-31T09:24:28.615Z,7.10
2023-01-31T09:26:56.520Z,7.87
2023-01-31T09:29:25.735Z,6.63
2023-01-31T09:31:54.237Z,7.80
2023-01-31T09:34:22.869Z,6.20
2023-01-31T09:36:50.620Z,6.57
2023-01-31T09:39:18.367Z,6.33
2023-01-31T09:41:48.279Z,6.67
2023-01-31T09:44:20.251Z,7.87
2023-01-31T09:46:55.608Z,6.40
2023-01-31T09:49:27.165Z,5.97
2023-01-31T09:51:58.563Z,7.10
2023-01-31T09:54:30.862Z,7.67
2023-01-31T09:57:09.583Z,7.80
2023-01-31T09:59:44.819Z,7.50
2023-01-31T10:02:29.722Z,8.03
2023-01-31T10:05:12.482Z,8.37
2023-01-31T10:07:47.055Z,8.40
2023-01-31T10:10:22.551Z,7.70
2023-01-31T10:12:55.828Z,8.17
2023-01-31T10:15:31.610Z,8.63
2023-01-31T10:18:03.388Z,6.90
2023-01-31T10:20:37.220Z,7.10
2023-01-31T10:23:11.950Z,7.60
2023-01-31T10:25:44.643Z,5.67
2023-01-31T10:28:16.375Z,6.63
2023-01-31T10:30:49.518Z,6.73
2023-01-31T10:33:26.064Z,5.80
2023-01-31T10:35:56.759Z,5.13
2023-01-31T10:38:29.019Z,4.93
2023-01-31T10:41:02.973Z,5.80
2023-01-31T10:43:40.727Z,6.17
2023-01-31T10:46:12.700Z,5.80
2023-01-31T10:48:47.317Z,4.53
2023-01-31T10:51:30.860Z,5.10
2023-01-31T10:54:20.047Z,5.30
2023-01-31T10:56:49.390Z,5.40
2023-01-31T10:59:24.100Z,5.07
2023-01-31T11:01:52.323Z,6.07
2023-01-31T11:04:28.876Z,5.93
2023-01-31T11:06:59.392Z,5.60
2023-01-31T11:09:31.384Z,5.57
2023-01-31T11:12:00.797Z,5.93
2023-01-31T11:14:29.948Z,6.80
2023-01-31T11:17:01.761Z,6.77
2023-01-31T11:19:37.097Z,5.77
2023-01-31T11:22:05.599Z,5.27
2023-01-31T11:24:35.286Z,6.00
2023-01-31T11:27:05.619Z,6.07
2023-01-31T11:29:36.826Z,5.83
2023-01-31T11:32:07.814Z,5.93
2023-01-31T11:34:37.552Z,5.83
2023-01-31T11:37:13.659Z,8.13
2023-01-31T11:39:41.515Z,6.07
2023-01-31T11:42:17.306Z,5.20
2023-01-31T11:44:56.695Z,6.30
2023-01-31T11:47:32.171Z,6.53
2023-01-31T11:50:02.234Z,7.03
2023-01-31T11:52:32.139Z,6.73
2023-01-31T11:55:02.197Z,6.97
2023-01-31T11:57:32.976Z,7.30
2023-01-31T12:00:02.606Z,7.30
2023-01-31T12:02:37.482Z,7.37
2023-01-31T12:05:16.181Z,7.13
2023-01-31T12:07:46.756Z,7.20
2023-01-31T12:10:31.579Z,7.57
2023-01-31T12:13:16.730Z,7.93
2023-01-31T12:15:51.158Z,8.17
2023-01-31T12:18:28.903Z,7.57
2023-01-31T12:21:07.248Z,7.67
2023-01-31T12:23:46.556Z,8.47
2023-01-31T12:26:22.094Z,8.60
2023-01-31T12:29:11.894Z,8.03
2023-01-31T12:31:58.162Z,7.60
2023-01-31T12:34:59.552Z,7.60
2023-01-31T12:37:38.519Z,8.07
2023-01-31T12:40:27.646Z,7.77
2023-01-31T12:42:59.314Z,7.57
2023-01-31T12:45:41.895Z,7.90
2023-01-31T12:48:44.636Z,8.50
2023-01-31T12:51:36.206Z,7.30
2023-01-31T12:54:23.308Z,8.33
2023-01-31T12:57:03.830Z,8.20
2023-01-31T12:59:44.204Z,8.40
2023-01-31T13:02:40.106Z,9.43
2023-01-31T13:05:28.229Z,9.93
2023-01-31T13:08:01.615Z,10.23
2023-01-31T13:10:40.326Z,10.80
2023-01-31T13:13:16.824Z,11.43
2023-01-31T13:15:49.776Z,12.53
2023-01-31T13:18:19.656Z,11.97
2023-01-31T13:20:51.529Z,12.97
2023-01-31T13:23:22.293Z,12.27
2023-01-31T13:25:56.999Z,14.27
2023-01-31T13:28:29.319Z,13.10
2023-01-31T13:30:59.742Z,13.27
2023-01-31T13:33:33.405Z,13.57
2023-01-31T13:36:25.265Z,13.50
2023-01-31T13:38:53.667Z,12.27
2023-01-31T13:41:29.497Z,13.40
2023-01-31T13:43:58.048Z,12.23
2023-01-31T13:46:30.713Z,12.97
2023-01-31T13:49:02.097Z,13.97
2023-01-31T13:51:36.914Z,11.73
2023-01-31T13:54:13.224Z,12.20
2023-01-31T13:56:43.105Z,11.67
2023-01-31T13:59:11.862Z,11.10
2023-01-31T14:01:46.876Z,10.47
2023-01-31T14:04:30.667Z,11.53
2023-01-31T14:07:16.662Z,9.83
2023-01-31T14:09:46.660Z,10.47
2023-01-31T14:12:36.542Z,9.03
2023-01-31T14:15:25.885Z,9.47
2023-01-31T14:18:02.663Z,8.63
2023-01-31T14:20:32.195Z,7.97
2023-01-31T14:23:30.938Z,9.30
2023-01-31T14:25:58.869Z,6.63
2023-01-31T14:28:28.332Z,6.90
2023-01-31T14:30:57.146Z,6.87
2023-01-31T14:33:30.435Z,7.20
2023-01-31T14:36:32.354Z,5.97
2023-01-31T14:39:42.126Z,5.97
2023-01-31T14:42:28.337Z,5.70
2023-01-31T14:45:14.148Z,4.83
2023-01-31T14:47:56.964Z,6.03
2023-01-31T14:50:36.760Z,5.87
2023-01-31T14:53:17.820Z,5.47
2023-01-31T14:56:07.399Z,6.13
2023-01-31T14:58:36.100Z,5.17
2023-01-31T15:01:08.507Z,4.90
2023-01-31T15:03:38.949Z,4.63
2023-01-31T15:06:10.381Z,4.47
2023-01-31T15:08:47.841Z,4.27
2023-01-31T15:11:42.418Z,4.63
2023-01-31T15:14:34.215Z,4.70
2023-01-31T15:17:07.201Z,5.17
2023-01-31T15:19:43.899Z,5.13
2023-01-31T15:22:12.718Z,5.43
2023-01-31T15:24:44.476Z,5.60
2023-01-31T15:27:19.493Z,5.43
2023-01-31T15:29:55.191Z,5.83
2023-01-31T15:32:25.743Z,6.33
2023-01-31T15:37:32.345Z,5.57
2023-01-31T15:40:04.306Z,5.50
2023-01-31T15:42:34.822Z,6.07
2023-01-31T15:45:23.887Z,6.37
2023-01-31T15:47:59.521Z,7.30
2023-01-31T15:50:28.819Z,7.23
2023-01-31T15:52:57.204Z,6.53
2023-01-31T15:55:25.188Z,6.80
2023-01-31T15:57:57.530Z,6.60
2023-01-31T16:00:28.132Z,7.57
2023-01-31T16:03:01.347Z,6.30
2023-01-31T16:05:32.581Z,6.00
2023-01-31T16:08:01.328Z,5.90
2023-01-31T16:10:30.504Z,6.07
2023-01-31T16:13:01.506Z,6.07
2023-01-31T16:15:31.453Z,7.13
2023-01-31T16:18:03.066Z,6.73
2023-01-31T16:20:43.824Z,8.03
2023-01-31T16:23:30.038Z,7.20
2023-01-31T16:26:04.333Z,7.33
2023-01-31T16:28:38.841Z,7.03
2023-01-31T16:31:09.104Z,7.10
2023-01-31T16:33:37.650Z,8.13
2023-01-31T16:36:14.357Z,7.17
2023-01-31T16:38:44.020Z,4.83
2023-01-31T16:41:12.930Z,2.43
2023-01-31T16:43:43.730Z,4.77
2023-01-31T16:46:36.820Z,5.20
2023-01-31T16:49:06.728Z,3.70
2023-01-31T16:51:45.047Z,2.23
2023-01-31T16:54:18.903Z,2.13
2023-01-31T16:56:48.226Z,1.80
2023-01-31T16:59:51.233Z,1.70
2023-01-31T17:02:26.345Z,1.57
2023-01-31T17:04:56.529Z,1.67
2023-01-31T17:07:27.720Z,1.73
2023-01-31T17:09:57.596Z,1.87
2023-01-31T17:12:28.515Z,2.53
2023-01-31T17:15:00.802Z,3.30
2023-01-31T17:17:34.199Z,2.63
2023-01-31T17:20:02.135Z,3.17
2023-01-31T17:22:29.791Z,2.70
2023-01-31T17:24:57.437Z,3.57
2023-01-31T17:27:25.190Z,3.10
2023-01-31T17:29:52.944Z,2.17
2023-01-31T17:32:22.321Z,2.57
2023-01-31T17:34:50.023Z,2.10
2023-01-31T17:37:26.795Z,2.23
2023-01-31T17:39:59.625Z,2.67
2023-01-31T17:42:27.286Z,3.03
2023-01-31T17:44:55.015Z,2.13
2023-01-31T17:47:26.586Z,2.67
2023-01-31T17:49:54.779Z,2.67
2023-01-31T17:52:22.510Z,3.23
2023-01-31T17:54:50.249Z,3.30
2023-01-31T17:57:17.937Z,4.50
2023-01-31T17:59:45.580Z,4.13
2023-01-31T18:02:13.268Z,4.47
2023-01-31T18:04:42.274Z,3.90
2023-01-31T18:07:09.950Z,4.20
2023-01-31T18:09:37.645Z,4.53
2023-01-31T18:12:05.766Z,3.53
2023-01-31T18:14:33.611Z,3.77
2023-01-31T18:17:01.334Z,3.17
2023-01-31T18:19:29.392Z,3.00
2023-01-31T18:21:59.514Z,2.63
2023-01-31T18:24:27.235Z,2.30
2023-01-31T18:26:56.827Z,2.90
2023-01-31T18:29:26.339Z,2.53
2023-01-31T18:31:57.460Z,2.50
2023-01-31T18:34:25.672Z,2.57
2023-01-31T18:36:53.338Z,3.10
2023-01-31T18:39:23.516Z,2.83
2023-01-31T18:41:51.273Z,2.20
2023-01-31T18:44:18.940Z,2.73
2023-01-31T18:46:46.941Z,2.83
2023-01-31T18:49:14.694Z,2.23
2023-01-31T18:51:42.760Z,2.70
2023-01-31T18:54:10.613Z,2.40
2023-01-31T18:56:39.830Z,2.97
2023-01-31T18:59:07.554Z,3.43
2023-01-31T19:01:35.259Z,2.43
2023-01-31T19:04:02.935Z,3.07
2023-01-31T19:06:35.261Z,2.70
2023-01-31T19:09:04.535Z,2.43
2023-01-31T19:11:32.427Z,3.20
2023-01-31T19:14:06.510Z,2.30
2023-01-31T19:16:37.339Z,2.50
2023-01-31T19:19:05.045Z,2.60
2023-01-31T19:21:34.799Z,3.00
2023-01-31T19:24:03.985Z,2.77
2023-01-31T19:26:33.969Z,2.90
2023-01-31T19:29:03.895Z,2.60
2023-01-31T19:31:33.524Z,3.53
2023-01-31T19:34:02.924Z,3.50
2023-01-31T19:36:32.679Z,3.33
2023-01-31T19:39:02.013Z,2.63
2023-01-31T19:41:30.418Z,2.93
2023-01-31T19:43:59.777Z,3.70
2023-01-31T19:46:31.239Z,3.30
2023-01-31T19:49:00.181Z,2.80
2023-01-31T19:51:28.912Z,3.17
2023-01-31T19:53:59.949Z,3.73
2023-01-31T19:56:27.881Z,3.03
2023-01-31T19:58:55.659Z,3.27
2023-01-31T20:01:23.740Z,3.47
2023-01-31T20:03:54.875Z,3.30
2023-01-31T20:06:25.526Z,4.00
2023-01-31T20:08:54.826Z,3.27
2023-01-31T20:11:22.906Z,2.53
2023-01-31T20:13:51.194Z,3.03
2023-01-31T20:16:19.814Z,2.40
2023-01-31T20:18:47.542Z,2.90
2023-01-31T20:21:18.351Z,3.73
2023-01-31T20:23:46.364Z,3.40
2023-01-31T20:26:15.267Z,3.40
2023-01-31T20:28:43.438Z,4.07
2023-01-31T20:31:13.274Z,3.73
2023-01-31T20:33:41.370Z,3.47
2023-01-31T20:36:09.742Z,4.43
2023-01-31T20:38:40.003Z,3.60
2023-01-31T20:41:09.195Z,3.20
2023-01-31T20:43:37.580Z,3.83
2023-01-31T20:46:07.747Z,3.87
2023-01-31T20:48:35.635Z,3.90
2023-01-31T20:51:03.445Z,3.33
2023-01-31T20:53:31.914Z,3.33
2023-01-31T20:56:02.385Z,3.57
2023-01-31T20:58:33.098Z,3.10
2023-01-31T21:01:03.435Z,3.53
2023-01-31T21:03:32.638Z,3.27
2023-01-31T21:06:00.734Z,3.03
2023-01-31T21:08:29.835Z,3.50
2023-01-31T21:10:59.262Z,2.73
2023-01-31T21:13:28.975Z,2.53
2023-01-31T21:15:58.812Z,2.67
2023-01-31T21:18:29.267Z,3.60
2023-01-31T21:20:57.614Z,3.63
2023-01-31T21:23:25.610Z,2.80
2023-01-31T21:25:53.701Z,3.93
2023-01-31T21:28:21.333Z,3.50
2023-01-31T21:31:00.170Z,3.60
2023-01-31T21:33:28.315Z,2.97
2023-01-31T21:35:58.098Z,4.13
2023-01-31T21:38:26.302Z,3.30
2023-01-31T21:41:14.013Z,3.30
2023-01-31T21:43:41.028Z,4.10
2023-01-31T21:46:10.475Z,3.10
2023-01-31T21:48:38.666Z,3.23
2023-01-31T21:51:08.237Z,4.17
2023-01-31T21:53:36.197Z,3.73
2023-01-31T21:56:04.247Z,3.60
2023-01-31T21:58:32.538Z,3.07
2023-01-31T22:01:04.716Z,3.30
2023-01-31T22:03:34.817Z,3.10
2023-01-31T22:06:03.390Z,3.20
2023-01-31T22:08:31.564Z,3.13
2023-01-31T22:11:01.257Z,3.00
2023-01-31T22:13:29.015Z,2.73
2023-01-31T22:16:00.368Z,2.83
2023-01-31T22:18:29.203Z,3.20
2023-01-31T22:21:06.001Z,2.53
2023-01-31T22:23:34.505Z,3.53
2023-01-31T22:26:07.059Z,2.93
2023-01-31T22:28:35.416Z,2.93
2023-01-31T22:31:03.964Z,3.93
2023-01-31T22:33:32.282Z,2.63
2023-01-31T22:36:00.514Z,3.30
2023-01-31T22:38:29.719Z,3.90
2023-01-31T22:40:58.394Z,3.40
2023-01-31T22:43:27.027Z,3.70
2023-01-31T22:45:58.252Z,3.23
2023-01-31T22:48:27.261Z,3.10
2023-01-31T22:50:56.120Z,3.10
2023-01-31T22:53:24.142Z,2.90
2023-01-31T22:55:53.427Z,3.17
2023-01-31T22:58:21.939Z,3.43
2023-01-31T23:00:49.891Z,3.00
2023-01-31T23:03:17.592Z,3.73
2023-01-31T23:05:45.684Z,3.43
2023-01-31T23:08:14.373Z,3.07
2023-01-31T23:10:43.140Z,2.90
2023-01-31T23:13:12.591Z,3.53
2023-01-31T23:15:41.246Z,3.37
2023-01-31T23:18:09.219Z,3.77
2023-01-31T23:20:36.942Z,3.10
2023-01-31T23:23:04.751Z,3.60
2023-01-31T23:25:32.625Z,3.37
2023-01-31T23:28:02.297Z,3.50
2023-01-31T23:30:31.509Z,2.77
2023-01-31T23:32:59.445Z,3.97
2023-01-31T23:35:27.301Z,3.07
2023-01-31T23:37:55.017Z,3.63
2023-01-31T23:40:23.151Z,2.93
2023-01-31T23:42:51.205Z,3.80
2023-01-31T23:45:18.960Z,4.07
2023-01-31T23:47:50.362Z,2.97
2023-01-31T23:50:18.727Z,2.83
2023-01-31T23:52:46.609Z,4.03
2023-01-31T23:55:14.389Z,2.53
2023-01-31T23:57:42.318Z,4.07
